createdAt,value
2023-04-30T00:02:10.605Z,73.41
2023-04-30T00:04:42.621Z,73.41
2023-04-30T00:07:27.012Z,73.47
2023-04-30T00:09:58.722Z,73.38
2023-04-30T00:12:30.268Z,73.31
2023-04-30T00:15:02.035Z,73.30
2023-04-30T00:17:51.702Z,73.22
2023-04-30T00:20:23.790Z,73.32
2023-04-30T00:23:04.184Z,73.27
2023-04-30T00:25:32.900Z,73.26
2023-04-30T00:28:01.622Z,73.32
2023-04-30T00:30:33.585Z,73.35
2023-04-30T00:33:05.802Z,73.68
2023-04-30T00:35:36.755Z,73.82
2023-04-30T00:38:22.560Z,73.73
2023-04-30T00:40:54.638Z,73.68
2023-04-30T00:43:35.204Z,73.54
2023-04-30T00:46:12.621Z,73.75
2023-04-30T00:48:50.598Z,73.84
2023-04-30T00:51:23.371Z,73.78
2023-04-30T00:53:55.165Z,73.74
2023-04-30T00:56:38.354Z,73.42
2023-04-30T00:59:09.564Z,73.33
2023-04-30T01:01:43.023Z,73.37
2023-04-30T01:04:20.496Z,73.16
2023-04-30T01:06:52.675Z,73.04
2023-04-30T01:09:26.775Z,73.09
2023-04-30T01:12:16.094Z,73.18
2023-04-30T01:15:30.304Z,73.10
2023-04-30T01:18:21.009Z,72.95
2023-04-30T01:21:10.388Z,73.00
2023-04-30T01:24:16.984Z,73.14
2023-04-30T01:27:16.649Z,73.13
2023-04-30T01:29:48.169Z,72.93
2023-04-30T01:32:24.543Z,72.83
2023-04-30T01:34:58.934Z,72.72
2023-04-30T01:38:00.466Z,72.79
2023-04-30T01:40:40.016Z,72.68
2023-04-30T01:43:58.748Z,72.82
2023-04-30T01:46:36.902Z,72.75
2023-04-30T01:49:20.577Z,72.80
2023-04-30T01:51:57.470Z,72.79
2023-04-30T01:54:50.641Z,72.91
2023-04-30T01:57:46.155Z,72.95
2023-04-30T02:00:18.069Z,72.80
2023-04-30T02:02:46.802Z,72.77
2023-04-30T02:05:20.935Z,72.73
2023-04-30T02:07:55.741Z,73.02
2023-04-30T02:10:31.145Z,72.84
2023-04-30T02:13:00.105Z,72.83
2023-04-30T02:15:39.937Z,72.72
2023-04-30T02:18:11.473Z,72.65
2023-04-30T02:20:51.233Z,72.68
2023-04-30T02:23:26.968Z,72.61
2023-04-30T02:26:04.166Z,72.66
2023-04-30T02:28:36.248Z,72.70
2023-04-30T02:31:10.278Z,72.66
2023-04-30T02:33:58.057Z,72.73
2023-04-30T02:36:36.493Z,72.77
2023-04-30T02:39:11.100Z,72.85
2023-04-30T02:41:56.319Z,72.87
2023-04-30T02:44:33.364Z,72.94
2023-04-30T02:47:06.855Z,73.01
2023-04-30T02:49:44.041Z,73.01
2023-04-30T02:52:23.102Z,72.94
2023-04-30T02:55:10.014Z,72.77
2023-04-30T02:57:43.650Z,72.67
2023-04-30T03:00:20.981Z,72.45
2023-04-30T03:02:57.631Z,72.69
2023-04-30T03:05:35.845Z,72.88
2023-04-30T03:08:30.595Z,73.33
2023-04-30T03:11:07.373Z,73.66
2023-04-30T03:13:45.241Z,73.80
2023-04-30T03:16:19.062Z,73.83
2023-04-30T03:19:00.968Z,74.21
2023-04-30T03:21:44.571Z,74.55
2023-04-30T03:24:18.284Z,74.61
2023-04-30T03:27:00.194Z,74.75
2023-04-30T03:29:38.690Z,75.10
2023-04-30T03:32:19.381Z,75.33
2023-04-30T03:35:01.565Z,75.97
2023-04-30T03:37:38.437Z,76.19
2023-04-30T03:40:33.309Z,76.43
2023-04-30T03:43:23.947Z,76.60
2023-04-30T03:46:10.385Z,77.26
2023-04-30T03:48:52.638Z,77.62
2023-04-30T03:52:07.643Z,77.63
2023-04-30T03:54:38.661Z,77.61
2023-04-30T03:57:11.036Z,77.44
2023-04-30T03:59:41.758Z,77.76
2023-04-30T04:02:14.096Z,78.37
2023-04-30T04:04:50.208Z,78.19
2023-04-30T04:07:40.610Z,77.55
2023-04-30T04:10:20.226Z,77.05
2023-04-30T04:12:58.352Z,76.67
2023-04-30T04:15:35.234Z,76.51
2023-04-30T04:18:04.286Z,76.31
2023-04-30T04:20:45.298Z,76.25
2023-04-30T04:23:14.051Z,76.06
2023-04-30T04:25:49.869Z,75.99
2023-04-30T04:28:34.999Z,75.51
2023-04-30T04:31:27.072Z,74.92
2023-04-30T04:34:00.774Z,74.47
2023-04-30T04:36:39.664Z,74.42
2023-04-30T04:39:37.429Z,74.28
2023-04-30T04:42:16.337Z,73.66
2023-04-30T04:45:11.278Z,73.95
2023-04-30T04:47:59.540Z,73.47
2023-04-30T04:50:50.013Z,72.67
2023-04-30T04:53:26.467Z,72.17
2023-04-30T04:56:08.567Z,71.57
2023-04-30T04:58:37.805Z,71.21
2023-04-30T05:01:13.058Z,70.81
2023-04-30T05:03:48.930Z,70.38
2023-04-30T05:06:18.203Z,69.86
2023-04-30T05:08:59.130Z,70.33
2023-04-30T05:11:31.108Z,70.36
2023-04-30T05:14:05.834Z,70.01
2023-04-30T05:16:37.494Z,69.43
2023-04-30T05:19:16.655Z,69.20
2023-04-30T05:22:08.335Z,69.44
2023-04-30T05:24:53.201Z,70.06
2023-04-30T05:27:25.507Z,69.90
2023-04-30T05:30:00.338Z,69.87
2023-04-30T05:32:31.973Z,68.52
2023-04-30T05:35:13.218Z,68.37
2023-04-30T05:37:48.381Z,68.34
2023-04-30T05:40:20.673Z,67.61
2023-04-30T05:43:05.817Z,67.03
2023-04-30T05:46:07.015Z,67.62
2023-04-30T05:48:50.296Z,67.75
2023-04-30T05:51:28.134Z,67.48
2023-04-30T05:54:05.180Z,67.12
2023-04-30T05:56:42.677Z,65.32
2023-04-30T05:59:19.765Z,66.03
2023-04-30T06:01:48.410Z,65.74
2023-04-30T06:04:34.036Z,65.63
2023-04-30T06:07:13.664Z,64.41
2023-04-30T06:09:47.817Z,64.65
2023-04-30T06:12:19.651Z,64.54
2023-04-30T06:14:53.851Z,64.52
2023-04-30T06:17:34.870Z,63.40
2023-04-30T06:20:07.329Z,63.28
2023-04-30T06:22:58.614Z,63.77
2023-04-30T06:25:44.653Z,64.55
2023-04-30T06:28:18.904Z,64.02
2023-04-30T06:30:54.719Z,62.91
2023-04-30T06:33:29.200Z,62.81
2023-04-30T06:36:04.276Z,64.22
2023-04-30T06:38:44.116Z,64.34
2023-04-30T06:41:22.908Z,63.92
2023-04-30T06:44:00.205Z,63.33
2023-04-30T06:46:38.872Z,62.76
2023-04-30T06:49:14.576Z,63.36
2023-04-30T06:51:46.017Z,62.48
2023-04-30T06:54:28.229Z,62.41
2023-04-30T06:57:00.895Z,61.75
2023-04-30T06:59:43.223Z,61.85
2023-04-30T07:02:14.836Z,61.57
2023-04-30T07:04:47.139Z,60.44
2023-04-30T07:07:18.790Z,60.80
2023-04-30T07:09:58.289Z,61.42
2023-04-30T07:12:50.061Z,61.28
2023-04-30T07:15:45.158Z,60.12
2023-04-30T07:18:14.138Z,60.13
2023-04-30T07:20:42.833Z,59.30
2023-04-30T07:23:20.132Z,57.96
2023-04-30T07:25:49.362Z,59.96
2023-04-30T07:28:18.328Z,59.22
2023-04-30T07:30:58.171Z,57.65
2023-04-30T07:33:27.161Z,57.46
2023-04-30T07:35:59.329Z,58.26
2023-04-30T07:38:38.665Z,58.54
2023-04-30T07:41:08.495Z,57.83
2023-04-30T07:43:59.586Z,58.14
2023-04-30T07:46:37.890Z,58.32
2023-04-30T07:49:07.191Z,58.25
2023-04-30T07:51:50.122Z,58.98
2023-04-30T07:54:41.744Z,58.69
2023-04-30T07:57:13.125Z,57.94
2023-04-30T07:59:44.232Z,57.20
2023-04-30T08:02:13.961Z,56.86
2023-04-30T08:04:50.314Z,56.51
2023-04-30T08:07:21.352Z,57.10
2023-04-30T08:09:53.505Z,55.20
2023-04-30T08:12:27.943Z,55.08
2023-04-30T08:15:08.003Z,55.52
2023-04-30T08:17:39.789Z,56.18
2023-04-30T08:20:09.645Z,55.61
2023-04-30T08:22:47.466Z,54.06
2023-04-30T08:25:16.769Z,55.66
2023-04-30T08:27:45.457Z,54.62
2023-04-30T08:30:14.174Z,52.71
2023-04-30T08:32:46.141Z,53.74
2023-04-30T08:35:17.136Z,51.95
2023-04-30T08:37:51.773Z,52.65
2023-04-30T08:40:38.302Z,53.70
2023-04-30T08:43:15.869Z,53.16
2023-04-30T08:45:45.911Z,53.89
2023-04-30T08:48:19.340Z,53.88
2023-04-30T08:50:48.064Z,50.94
2023-04-30T08:53:18.411Z,50.87
2023-04-30T08:55:47.594Z,50.66
2023-04-30T08:58:18.639Z,51.58
2023-04-30T09:00:47.322Z,53.83
2023-04-30T09:03:16.394Z,53.14
2023-04-30T09:05:45.116Z,49.85
2023-04-30T09:08:20.613Z,50.37
2023-04-30T09:10:54.545Z,51.52
2023-04-30T09:13:41.484Z,49.88
2023-04-30T09:16:10.109Z,50.36
2023-04-30T09:18:42.630Z,50.71
2023-04-30T09:21:13.562Z,47.95
2023-04-30T09:24:08.480Z,47.05
2023-04-30T09:26:38.989Z,47.10
2023-04-30T09:29:08.396Z,46.82
2023-04-30T09:31:38.949Z,47.16
2023-04-30T09:34:08.146Z,45.95
2023-04-30T09:36:57.303Z,44.84
2023-04-30T09:39:26.277Z,46.13
2023-04-30T09:42:08.283Z,45.78
2023-04-30T09:44:41.742Z,47.90
2023-04-30T09:47:21.319Z,44.25
2023-04-30T09:49:53.112Z,42.83
2023-04-30T09:52:24.846Z,42.69
2023-04-30T09:54:53.827Z,44.13
2023-04-30T09:57:28.047Z,43.20
2023-04-30T09:59:58.758Z,43.57
2023-04-30T10:02:28.630Z,42.70
2023-04-30T10:04:59.477Z,43.34
2023-04-30T10:07:36.431Z,43.21
2023-04-30T10:10:09.561Z,42.07
2023-04-30T10:12:53.212Z,42.06
2023-04-30T10:15:26.721Z,41.46
2023-04-30T10:18:03.329Z,42.47
2023-04-30T10:20:36.987Z,42.63
2023-04-30T10:23:26.064Z,42.68
2023-04-30T10:25:56.705Z,42.74
2023-04-30T10:28:25.501Z,43.89
2023-04-30T10:30:57.920Z,42.82
2023-04-30T10:33:38.458Z,43.75
2023-04-30T10:36:13.900Z,42.20
2023-04-30T10:38:42.764Z,41.16
2023-04-30T10:41:11.341Z,41.77
2023-04-30T10:43:40.253Z,41.24
2023-04-30T10:46:11.881Z,41.76
2023-04-30T10:48:40.649Z,44.54
2023-04-30T10:51:09.472Z,43.01
2023-04-30T10:53:40.517Z,41.92
2023-04-30T10:56:09.754Z,41.90
2023-04-30T10:58:44.442Z,41.99
2023-04-30T11:01:17.756Z,43.07
2023-04-30T11:04:09.347Z,43.68
2023-04-30T11:06:54.232Z,43.52
2023-04-30T11:09:39.711Z,42.51
2023-04-30T11:12:12.717Z,42.45
2023-04-30T11:14:43.541Z,40.66
2023-04-30T11:17:25.264Z,39.65
2023-04-30T11:19:59.238Z,41.31
2023-04-30T11:22:30.382Z,41.74
2023-04-30T11:25:15.304Z,42.66
2023-04-30T11:27:45.616Z,41.12
2023-04-30T11:30:16.606Z,41.52
2023-04-30T11:32:48.065Z,42.29
2023-04-30T11:35:20.009Z,40.59
2023-04-30T11:37:49.482Z,41.10
2023-04-30T11:40:18.097Z,41.05
2023-04-30T11:42:48.635Z,41.45
2023-04-30T11:45:18.287Z,40.65
2023-04-30T11:47:52.038Z,40.96
2023-04-30T11:50:27.739Z,39.82
2023-04-30T11:53:05.686Z,39.06
2023-04-30T11:55:34.803Z,40.13
2023-04-30T11:58:04.094Z,39.79
2023-04-30T12:00:35.924Z,39.93
2023-04-30T12:03:07.005Z,39.18
2023-04-30T12:05:38.039Z,39.17
2023-04-30T12:08:09.219Z,39.39
2023-04-30T12:10:37.703Z,38.73
2023-04-30T12:13:06.339Z,38.57
2023-04-30T12:15:35.041Z,39.22
2023-04-30T12:18:13.726Z,39.37
2023-04-30T12:20:43.088Z,39.03
2023-04-30T12:23:12.105Z,37.98
2023-04-30T12:25:44.176Z,38.52
2023-04-30T12:28:12.919Z,37.10
2023-04-30T12:30:43.506Z,37.88
2023-04-30T12:33:19.417Z,36.99
2023-04-30T12:35:48.090Z,37.63
2023-04-30T12:38:21.616Z,37.06
2023-04-30T12:40:50.275Z,37.85
2023-04-30T12:43:19.147Z,37.35
2023-04-30T12:45:48.820Z,37.20
2023-04-30T12:48:20.846Z,36.81
2023-04-30T12:51:02.414Z,35.82
2023-04-30T12:53:31.926Z,36.46
2023-04-30T12:56:17.813Z,34.77
2023-04-30T12:58:50.281Z,35.38
2023-04-30T13:01:21.822Z,35.19
2023-04-30T13:03:51.512Z,34.37
2023-04-30T13:06:23.296Z,34.89
2023-04-30T13:08:58.333Z,36.06
2023-04-30T13:11:27.860Z,35.42
2023-04-30T13:13:56.942Z,35.48
2023-04-30T13:16:25.867Z,35.53
2023-04-30T13:18:55.363Z,35.23
2023-04-30T13:21:25.045Z,35.49
2023-04-30T13:23:58.402Z,35.14
2023-04-30T13:26:29.064Z,35.51
2023-04-30T13:28:57.446Z,35.25
2023-04-30T13:31:26.400Z,35.52
2023-04-30T13:33:55.119Z,36.63
2023-04-30T13:36:23.376Z,36.46
2023-04-30T13:38:51.888Z,36.01
2023-04-30T13:41:22.252Z,35.58
2023-04-30T13:43:50.708Z,35.39
2023-04-30T13:46:19.193Z,34.77
2023-04-30T13:48:50.343Z,34.91
2023-04-30T13:51:18.909Z,34.80
2023-04-30T13:53:47.292Z,34.56
2023-04-30T13:56:15.869Z,34.09
2023-04-30T13:58:44.389Z,35.24
2023-04-30T14:01:14.187Z,36.28
2023-04-30T14:03:44.785Z,36.26
2023-04-30T14:06:13.563Z,35.58
2023-04-30T14:08:42.137Z,35.53
2023-04-30T14:11:10.555Z,34.30
2023-04-30T14:13:39.121Z,35.04
2023-04-30T14:16:08.117Z,34.62
2023-04-30T14:18:37.326Z,34.15
2023-04-30T14:21:06.615Z,34.45
2023-04-30T14:23:35.302Z,34.48
2023-04-30T14:26:03.694Z,34.98
2023-04-30T14:28:32.369Z,35.05
2023-04-30T14:31:00.646Z,35.05
2023-04-30T14:33:31.860Z,34.34
2023-04-30T14:36:00.576Z,35.66
2023-04-30T14:38:31.313Z,36.29
2023-04-30T14:40:59.884Z,35.15
2023-04-30T14:43:28.265Z,34.00
2023-04-30T14:45:56.908Z,34.09
2023-04-30T14:48:25.537Z,34.52
2023-04-30T14:50:53.924Z,33.89
2023-04-30T14:53:22.638Z,34.80
2023-04-30T14:55:51.495Z,34.00
2023-04-30T14:58:21.220Z,35.40
2023-04-30T15:00:50.542Z,35.98
2023-04-30T15:03:21.298Z,35.49
2023-04-30T15:05:50.329Z,35.50
2023-04-30T15:08:18.621Z,35.18
2023-04-30T15:10:46.992Z,35.30
2023-04-30T15:13:15.575Z,35.29
2023-04-30T15:15:47.350Z,35.58
2023-04-30T15:18:16.137Z,35.00
2023-04-30T15:20:47.377Z,34.76
2023-04-30T15:23:19.066Z,33.74
2023-04-30T15:25:48.025Z,34.81
2023-04-30T15:28:17.205Z,35.03
2023-04-30T15:30:46.015Z,35.26
2023-04-30T15:33:14.640Z,34.41
2023-04-30T15:35:46.212Z,34.66
2023-04-30T15:38:14.831Z,34.69
2023-04-30T15:40:46.185Z,35.09
2023-04-30T15:43:15.066Z,34.34
2023-04-30T15:45:46.138Z,33.91
2023-04-30T15:48:15.099Z,34.78
2023-04-30T15:50:46.644Z,35.14
2023-04-30T15:53:15.233Z,34.88
2023-04-30T15:55:44.558Z,35.53
2023-04-30T15:58:13.482Z,34.91
2023-04-30T16:00:42.322Z,35.06
2023-04-30T16:03:12.122Z,35.41
2023-04-30T16:05:41.947Z,36.03
2023-04-30T16:08:13.044Z,35.36
2023-04-30T16:10:44.529Z,36.01
2023-04-30T16:13:13.733Z,36.58
2023-04-30T16:15:42.251Z,36.78
2023-04-30T16:18:10.796Z,36.48
2023-04-30T16:20:43.200Z,36.77
2023-04-30T16:23:11.866Z,37.99
2023-04-30T16:25:40.134Z,36.95
2023-04-30T16:28:08.864Z,36.53
2023-04-30T16:30:37.398Z,36.62
2023-04-30T16:33:07.296Z,37.16
2023-04-30T16:35:43.180Z,37.98
2023-04-30T16:38:11.703Z,37.97
2023-04-30T16:40:42.704Z,37.86
2023-04-30T16:43:11.560Z,37.38
2023-04-30T16:45:43.482Z,38.02
2023-04-30T16:48:11.957Z,38.52
2023-04-30T16:50:40.719Z,38.74
2023-04-30T16:53:11.076Z,38.56
2023-04-30T16:55:48.537Z,38.50
2023-04-30T16:58:20.187Z,38.20
2023-04-30T17:00:55.985Z,38.61
2023-04-30T17:03:25.029Z,39.04
2023-04-30T17:05:53.820Z,39.01
2023-04-30T17:08:23.330Z,39.02
2023-04-30T17:10:52.676Z,39.36
2023-04-30T17:13:21.048Z,39.02
2023-04-30T17:15:49.493Z,38.43
2023-04-30T17:18:18.674Z,38.59
2023-04-30T17:20:48.635Z,38.72
2023-04-30T17:23:16.968Z,38.96
2023-04-30T17:25:45.567Z,39.38
2023-04-30T17:28:14.253Z,39.44
2023-04-30T17:30:44.873Z,39.65
2023-04-30T17:33:13.523Z,39.85
2023-04-30T17:35:42.181Z,40.44
2023-04-30T17:38:11.053Z,41.29
2023-04-30T17:40:48.844Z,42.00
2023-04-30T17:43:17.406Z,43.16
2023-04-30T17:45:46.728Z,43.43
2023-04-30T17:48:15.643Z,43.35
2023-04-30T17:50:45.017Z,42.93
2023-04-30T17:53:13.710Z,42.73
2023-04-30T17:55:44.859Z,42.58
2023-04-30T17:58:13.577Z,42.73
2023-04-30T18:00:43.766Z,42.80
2023-04-30T18:03:13.393Z,43.17
2023-04-30T18:05:42.563Z,44.05
2023-04-30T18:08:11.360Z,44.45
2023-04-30T18:10:40.219Z,44.68
2023-04-30T18:13:10.979Z,44.54
2023-04-30T18:15:42.440Z,44.48
2023-04-30T18:18:11.746Z,44.43
2023-04-30T18:20:41.146Z,44.74
2023-04-30T18:23:10.445Z,44.78
2023-04-30T18:25:40.562Z,45.06
2023-04-30T18:28:09.758Z,45.77
2023-04-30T18:30:42.229Z,46.17
2023-04-30T18:33:11.212Z,46.57
2023-04-30T18:35:40.458Z,46.27
2023-04-30T18:38:11.568Z,46.12
2023-04-30T18:40:43.631Z,46.10
2023-04-30T18:43:20.846Z,46.17
2023-04-30T18:45:54.909Z,46.35
2023-04-30T18:48:30.592Z,46.67
2023-04-30T18:50:59.970Z,46.83
2023-04-30T18:53:45.566Z,46.96
2023-04-30T18:56:27.032Z,46.98
2023-04-30T18:58:56.235Z,47.15
2023-04-30T19:01:32.801Z,47.31
2023-04-30T19:04:21.928Z,47.36
2023-04-30T19:06:55.617Z,47.60
2023-04-30T19:09:24.842Z,47.73
2023-04-30T19:11:56.435Z,47.93
2023-04-30T19:14:31.256Z,48.17
2023-04-30T19:17:02.973Z,48.42
2023-04-30T19:19:44.321Z,48.50
2023-04-30T19:22:16.433Z,48.34
2023-04-30T19:24:52.590Z,48.28
2023-04-30T19:27:29.420Z,48.17
2023-04-30T19:30:02.329Z,48.15
2023-04-30T19:32:44.948Z,48.14
2023-04-30T19:35:30.697Z,48.18
2023-04-30T19:38:08.210Z,48.17
2023-04-30T19:40:37.814Z,48.21
2023-04-30T19:43:15.102Z,48.76
2023-04-30T19:45:56.893Z,48.63
2023-04-30T19:48:26.286Z,48.50
2023-04-30T19:50:58.512Z,48.60
2023-04-30T19:53:28.263Z,48.69
2023-04-30T19:56:09.283Z,49.07
2023-04-30T19:58:48.939Z,49.65
2023-04-30T20:01:24.691Z,50.12
2023-04-30T20:04:11.065Z,50.70
2023-04-30T20:06:48.677Z,51.41
2023-04-30T20:09:38.547Z,51.53
2023-04-30T20:12:18.163Z,51.92
2023-04-30T20:14:53.171Z,52.31
2023-04-30T20:17:24.999Z,53.18
2023-04-30T20:20:00.372Z,53.53
2023-04-30T20:22:37.498Z,53.80
2023-04-30T20:25:20.099Z,53.74
2023-04-30T20:27:53.284Z,53.67
2023-04-30T20:30:41.409Z,53.98
2023-04-30T20:33:20.955Z,54.18
2023-04-30T20:36:22.302Z,54.41
2023-04-30T20:39:11.781Z,54.45
2023-04-30T20:42:01.157Z,54.53
2023-04-30T20:44:49.082Z,54.39
2023-04-30T20:47:40.255Z,54.40
2023-04-30T20:50:29.157Z,54.72
2023-04-30T20:53:06.272Z,55.11
2023-04-30T20:56:04.556Z,55.81
2023-04-30T20:58:39.363Z,56.63
2023-04-30T21:01:34.816Z,57.65
2023-04-30T21:04:28.044Z,58.40
2023-04-30T21:07:19.355Z,59.25
2023-04-30T21:10:06.177Z,60.42
2023-04-30T21:13:30.135Z,61.25
2023-04-30T21:16:21.340Z,61.47
2023-04-30T21:19:09.102Z,61.32
2023-04-30T21:21:53.386Z,60.91
2023-04-30T21:24:39.539Z,61.03
2023-04-30T21:27:26.344Z,61.06
2023-04-30T21:30:00.915Z,61.17
2023-04-30T21:32:59.395Z,61.27
2023-04-30T21:35:45.149Z,61.37
2023-04-30T21:38:34.421Z,61.43
2023-04-30T21:41:37.145Z,61.53
2023-04-30T21:44:36.311Z,61.63
2023-04-30T21:47:57.922Z,61.53
2023-04-30T21:50:38.629Z,61.38
2023-04-30T21:53:29.185Z,61.21
2023-04-30T21:56:14.055Z,61.07
2023-04-30T21:59:35.116Z,61.26
2023-04-30T22:02:41.370Z,61.16
2023-04-30T22:05:40.606Z,61.16
2023-04-30T22:08:33.491Z,61.46
2023-04-30T22:11:42.113Z,61.97
2023-04-30T22:14:39.195Z,62.17
2023-04-30T22:17:33.756Z,62.34
2023-04-30T22:20:30.899Z,62.27
2023-04-30T22:23:33.312Z,62.53
2023-04-30T22:26:11.592Z,62.57
2023-04-30T22:28:50.718Z,62.60
2023-04-30T22:31:32.235Z,62.69
2023-04-30T22:34:18.317Z,62.83
2023-04-30T22:37:32.660Z,63.04
2023-04-30T22:40:35.686Z,63.27
2023-04-30T22:43:22.654Z,63.38
2023-04-30T22:46:10.908Z,63.57
2023-04-30T22:48:58.857Z,63.73
2023-04-30T22:51:47.604Z,63.75
2023-04-30T22:55:15.274Z,63.99
2023-04-30T22:57:52.394Z,64.01
2023-04-30T23:00:49.773Z,64.25
2023-04-30T23:03:41.583Z,64.44
2023-04-30T23:06:46.522Z,64.22
2023-04-30T23:09:27.350Z,64.46
2023-04-30T23:12:04.569Z,64.61
2023-04-30T23:14:46.528Z,64.57
2023-04-30T23:17:54.512Z,64.50
2023-04-30T23:20:46.465Z,64.46
2023-04-30T23:23:34.104Z,64.25
2023-04-30T23:26:08.524Z,64.17
2023-04-30T23:28:53.587Z,63.98
2023-04-30T23:31:39.909Z,64.27
2023-04-30T23:34:20.044Z,64.18
2023-04-30T23:37:15.960Z,64.75
2023-04-30T23:40:08.947Z,64.97
2023-04-30T23:42:43.959Z,65.06
2023-04-30T23:45:28.678Z,65.10
2023-04-30T23:48:05.906Z,65.30
2023-04-30T23:51:08.887Z,65.15
2023-04-30T23:53:52.194Z,65.15
2023-04-30T23:56:26.996Z,65.05
2023-04-30T23:58:59.117Z,65.06
